Time;durP1;ratioP1;P1;durP2;ratioP2;P2;SDS_P1;SDS_P2;PMS_P1;PMS_P2;Temp;Humidity;BMP_temperature;BMP_pressure;BME280_temperature;BME280_humidity;BME280_pressure;Samples;Min_cycle;Max_cycle;Signal;HPM_P1;HPM_P2
2022/08/04 05:33:08;;;;;;;;;;;;;;;31.91;56.90;98434.97;5921786;23;19921;-67
2022/08/04 05:35:41;;;;;;;;;;;;;;;32.66;54.80;98438.94;4944132;29;19937;-68
2022/08/04 05:38:10;;;;;;;;;;;;;;;32.64;53.82;98447.41;4948402;29;19934;-68
2022/08/04 05:40:38;;;;;;;;;;;;;;;32.92;53.09;98450.72;4927426;29;19994;-68
2022/08/04 05:43:05;;;;;;;;;;;;;;;33.27;51.39;98444.72;4937958;29;20223;-68
2022/08/04 05:45:34;;;;;;;;;;;;;;;33.21;51.59;98444.00;4937564;29;20216;-68
2022/08/04 05:48:02;;;;;;;;;;;;;;;32.78;52.83;98444.06;4948564;29;19937;-67
2022/08/04 05:50:29;;;;;;;;;;;;;;;32.79;52.95;98451.41;4938827;29;19931;-67
2022/08/04 05:52:58;;;;;;;;;;;;;;;32.23;54.46;98439.66;4944448;29;19927;-67
2022/08/04 05:55:26;;;;;;;;;;;;;;;31.84;56.58;98439.22;4940207;29;19931;-67
2022/08/04 05:57:54;;;;;;;;;;;;;;;31.32;58.98;98438.56;4934571;29;20328;-66
2022/08/04 06:00:23;;;;;;;;;;;;;;;31.08;60.30;98428.47;4951519;29;19927;-66
2022/08/04 06:03:05;;;;;;;;;;;;;;;30.73;62.17;98431.28;4931925;29;19939;-67
2022/08/04 06:05:32;;;;;;;;;;;;;;;30.52;65.09;98432.91;4938862;29;19934;-64
2022/08/04 06:08:00;;;;;;;;;;;;;;;30.32;64.04;98436.13;4940754;29;19935;-64
2022/08/04 06:10:30;;;;;;;;;;;;;;;30.42;63.95;98435.31;4932444;29;20335;-64
2022/08/04 06:13:00;;;;;;;;;;;;;;;30.26;65.52;98436.13;4932119;29;19935;-64
2022/08/04 06:15:28;;;;;;;;;;;;;;;30.27;66.51;98436.91;4928022;29;20212;-63
2022/08/04 06:18:00;;;;;;;;;;;;;;;30.27;68.47;98440.59;4926404;29;19938;-63
2022/08/04 06:20:29;;;;;;;;;;;;;;;30.24;70.12;98435.09;4931731;29;19931;-63
2022/08/04 06:22:58;;;;;;;;;;;;;;;30.19;66.48;98433.78;4930411;29;20946;-63
2022/08/04 06:25:27;;;;;;;;;;;;;;;30.20;68.05;98435.34;4928461;29;19935;-63
2022/08/04 06:27:54;;;;;;;;;;;;;;;30.40;66.51;98434.28;4932842;29;19937;-63
2022/08/04 06:30:25;;;;;;;;;;;;;;;30.40;67.07;98429.28;4929651;29;19926;-63
2022/08/04 06:32:56;;;;;;;;;;;;;;;30.13;67.19;98437.97;4928642;29;20382;-63
2022/08/04 06:35:24;;;;;;;;;;;;;;;30.17;69.52;98439.31;4940689;29;20308;-63
2022/08/04 06:37:53;;;;;;;;;;;;;;;30.04;68.16;98436.19;4955931;29;19927;-63
2022/08/04 06:40:23;;;;;;;;;;;;;;;30.10;67.93;98445.63;4932279;29;20263;-63
2022/08/04 06:42:51;;;;;;;;;;;;;;;30.13;68.13;98443.75;4937589;29;19934;-63
2022/08/04 06:45:19;;;;;;;;;;;;;;;30.16;68.79;98448.47;4938224;29;19934;-63
2022/08/04 06:47:47;;;;;;;;;;;;;;;30.07;69.68;98446.66;4948895;29;19934;-63
2022/08/04 06:50:15;;;;;;;;;;;;;;;29.89;71.80;98450.09;4935656;29;19935;-63
2022/08/04 06:52:43;;;;;;;;;;;;;;;29.76;72.17;98444.81;4935867;29;19938;-63
2022/08/04 06:55:10;;;;;;;;;;;;;;;29.78;72.22;98438.56;4935420;29;19935;-63
2022/08/04 06:57:39;;;;;;;;;;;;;;;29.69;73.03;98442.47;4942961;29;19926;-63
2022/08/04 07:00:10;;;;;;;;;;;;;;;29.54;74.18;98444.81;4943182;29;19935;-63
2022/08/04 07:02:43;;;;;;;;;;;;;;;29.52;74.35;98449.53;4947168;29;20224;-63
2022/08/04 07:05:11;;;;;;;;;;;;;;;29.58;76.49;98439.59;4930773;29;19935;-64
2022/08/04 07:07:39;;;;;;;;;;;;;;;29.55;79.22;98445.59;4938013;29;19927;-64
2022/08/04 07:10:07;;;;;;;;;;;;;;;29.46;79.26;98438.03;4926587;29;19934;-64
2022/08/04 07:12:35;;;;;;;;;;;;;;;29.52;78.20;98444.56;4938131;29;19926;-64
2022/08/04 07:15:03;;;;;;;;;;;;;;;29.52;78.80;98449.53;4952492;28;19942;-64
2022/08/04 07:17:31;;;;;;;;;;;;;;;29.61;78.14;98449.28;4936302;29;19946;-63
2022/08/04 07:19:58;;;;;;;;;;;;;;;29.66;80.58;98437.75;4937183;29;19934;-63
2022/08/04 07:22:26;;;;;;;;;;;;;;;29.71;80.00;98442.72;4941272;29;20197;-63
2022/08/04 07:24:54;;;;;;;;;;;;;;;29.82;83.45;98444.84;4945429;29;19938;-63
2022/08/04 07:27:22;;;;;;;;;;;;;;;29.87;81.99;98441.19;4954320;29;19931;-63
2022/08/04 07:29:49;;;;;;;;;;;;;;;29.97;82.91;98444.56;4942373;29;19926;-63
2022/08/04 07:32:21;;;;;;;;;;;;;;;29.87;82.30;98441.97;4944830;29;19931;-63
2022/08/04 07:34:48;;;;;;;;;;;;;;;29.95;80.23;98442.22;4953066;29;19933;-63
2022/08/04 07:37:16;;;;;;;;;;;;;;;29.81;76.03;98437.50;4941281;29;19941;-64
2022/08/04 07:39:43;;;;;;;;;;;;;;;29.84;77.43;98448.00;4954692;29;19934;-64
2022/08/04 07:42:11;;;;;;;;;;;;;;;29.96;77.09;98440.91;4940981;29;19942;-63
2022/08/04 07:44:38;;;;;;;;;;;;;;;29.92;78.63;98443.28;4940099;29;20334;-63
2022/08/04 07:47:06;;;;;;;;;;;;;;;30.01;75.31;98445.09;4939934;29;19931;-63
2022/08/04 07:49:34;;;;;;;;;;;;;;;30.03;75.26;98454.78;4940751;29;19927;-63
2022/08/04 07:52:01;;;;;;;;;;;;;;;29.91;74.27;98445.38;4940558;29;19934;-63
2022/08/04 07:54:29;;;;;;;;;;;;;;;29.89;71.02;98444.31;4939944;29;19931;-63
2022/08/04 07:56:56;;;;;;;;;;;;;;;29.88;72.68;98442.75;4940192;29;20223;-63
2022/08/04 07:59:24;;;;;;;;;;;;;;;29.96;72.93;98443.78;4939945;29;19938;-63
2022/08/04 08:01:52;;;;;;;;;;;;;;;29.80;77.50;98448.28;4939293;29;19935;-63
2022/08/04 08:04:19;;;;;;;;;;;;;;;29.96;83.97;98440.91;4937186;29;19934;-63
2022/08/04 08:06:47;;;;;;;;;;;;;;;29.75;78.89;98439.59;4937240;29;19926;-63
2022/08/04 08:09:16;;;;;;;;;;;;;;;29.96;77.02;98443.78;4942734;29;19954;-63
2022/08/04 08:11:45;;;;;;;;;;;;;;;29.84;74.92;98443.00;4923152;29;19927;-63
2022/08/04 08:14:14;;;;;;;;;;;;;;;29.83;71.02;98446.44;4950214;29;19957;-63
2022/08/04 08:16:41;;;;;;;;;;;;;;;29.94;74.63;98446.41;4940500;29;20324;-63
2022/08/04 08:19:08;;;;;;;;;;;;;;;29.86;75.45;98448.25;4947194;29;19930;-63
2022/08/04 08:21:36;;;;;;;;;;;;;;;30.00;80.73;98443.53;4952123;29;20215;-63
2022/08/04 08:24:04;;;;;;;;;;;;;;;30.04;74.06;98444.84;4958385;29;19934;-63
2022/08/04 08:26:34;;;;;;;;;;;;;;;30.07;78.92;98443.78;4957818;28;20327;-64
2022/08/04 08:29:02;;;;;;;;;;;;;;;30.10;76.15;98444.81;4955524;29;19937;-64
2022/08/04 08:31:30;;;;;;;;;;;;;;;30.17;76.26;98436.44;4934346;29;19931;-64
2022/08/04 08:33:58;;;;;;;;;;;;;;;30.12;72.92;98433.53;4940875;29;19927;-63
2022/08/04 08:36:31;;;;;;;;;;;;;;;30.23;75.44;98433.50;4933707;29;19935;-64
2022/08/04 08:39:20;;;;;;;;;;;;;;;30.37;79.39;98436.13;4928141;29;19932;-64
2022/08/04 08:42:14;;;;;;;;;;;;;;;30.40;76.11;98431.38;4932135;29;19930;-64
2022/08/04 08:44:47;;;;;;;;;;;;;;;30.49;78.72;98434.75;4931412;29;19939;-63
2022/08/04 08:47:34;;;;;;;;;;;;;;;30.54;77.48;98433.97;4918460;29;19931;-63
2022/08/04 08:50:19;;;;;;;;;;;;;;;30.59;76.34;98431.59;4936786;29;19931;-63
2022/08/04 08:53:07;;;;;;;;;;;;;;;30.64;73.06;98439.44;4937173;29;19926;-64
2022/08/04 08:55:53;;;;;;;;;;;;;;;30.50;77.21;98442.13;4931888;29;19942;-64
2022/08/04 08:58:31;;;;;;;;;;;;;;;30.66;76.72;98434.72;4931865;29;20251;-64
2022/08/04 09:01:33;;;;;;;;;;;;;;;30.71;73.10;98444.66;4928038;29;19926;-63
2022/08/04 09:04:03;;;;;;;;;;;;;;;30.78;74.79;98444.91;4859116;29;19939;-63
2022/08/04 09:06:39;;;;;;;;;;;;;;;30.75;77.09;98440.19;4920922;29;19935;-63
2022/08/04 09:09:22;;;;;;;;;;;;;;;30.70;74.17;98438.09;4930032;29;19927;-63
2022/08/04 09:12:04;;;;;;;;;;;;;;;30.70;69.02;98438.09;4936557;29;19938;-63
2022/08/04 09:14:40;;;;;;;;;;;;;;;30.62;64.71;98442.09;4936072;29;19931;-63
2022/08/04 09:17:17;;;;;;;;;;;;;;;30.66;65.59;98443.38;4939466;29;19927;-63
2022/08/04 09:19:51;;;;;;;;;;;;;;;30.76;67.92;98441.75;4926909;29;20359;-63
2022/08/04 09:22:27;;;;;;;;;;;;;;;30.85;69.32;98438.56;4920118;29;20231;-63
2022/08/04 09:25:01;;;;;;;;;;;;;;;30.86;67.36;98436.47;4919653;29;20328;-64
2022/08/04 09:27:47;;;;;;;;;;;;;;;30.85;57.90;98444.34;4940457;29;19933;-63
2022/08/04 09:30:17;;;;;;;;;;;;;;;30.85;55.03;98443.53;4938847;29;20311;-63
2022/08/04 09:32:45;;;;;;;;;;;;;;;30.96;58.87;98437.75;4924148;29;20546;-63
2022/08/04 09:35:25;;;;;;;;;;;;;;;31.03;58.67;98437.94;4957268;29;19931;-63
2022/08/04 09:38:02;;;;;;;;;;;;;;;31.02;63.77;98442.19;4956887;28;19939;-63
2022/08/04 09:40:36;;;;;;;;;;;;;;;31.21;66.72;98436.53;4957825;29;19935;-63
2022/08/04 09:43:03;;;;;;;;;;;;;;;31.37;67.50;98431.97;4956773;29;19933;-64
2022/08/04 09:45:54;;;;;;;;;;;;;;;31.18;61.70;98440.50;4949803;29;19930;-64
2022/08/04 09:48:30;;;;;;;;;;;;;;;31.22;65.03;98438.13;4934632;29;19935;-63
2022/08/04 09:50:58;;;;;;;;;;;;;;;31.34;68.04;98433.03;4943366;29;19934;-64
2022/08/04 09:53:31;;;;;;;;;;;;;;;31.37;58.90;98432.75;4957732;29;19934;-64
2022/08/04 09:56:08;;;;;;;;;;;;;;;31.34;63.53;98433.81;4956895;29;20192;-63
2022/08/04 09:58:36;;;;;;;;;;;;;;;31.42;58.88;98434.03;4939642;29;19931;-63
2022/08/04 10:01:06;;;;;;;;;;;;;;;31.49;62.19;98427.72;4935323;29;19931;-63
2022/08/04 10:03:35;;;;;;;;;;;;;;;31.50;59.76;98426.38;4930579;29;19931;-64
2022/08/04 10:06:12;;;;;;;;;;;;;;;31.36;57.73;98433.28;4932851;29;19957;-63
2022/08/04 10:08:58;;;;;;;;;;;;;;;31.42;54.53;98420.38;4929918;29;20208;-63
2022/08/04 10:11:44;;;;;;;;;;;;;;;31.44;58.75;98423.53;4930824;29;20324;-63
2022/08/04 10:14:40;;;;;;;;;;;;;;;31.46;55.89;98423.78;4932382;29;19939;-63
2022/08/04 10:17:07;;;;;;;;;;;;;;;31.36;53.80;98413.06;4927626;29;19926;-63
2022/08/04 10:19:37;;;;;;;;;;;;;;;31.38;52.39;98416.97;4929410;29;19927;-63
2022/08/04 10:22:16;;;;;;;;;;;;;;;31.41;56.24;98415.91;4930299;29;19941;-64
2022/08/04 10:24:46;;;;;;;;;;;;;;;31.48;55.58;98403.00;4921448;29;19927;-63
2022/08/04 10:27:19;;;;;;;;;;;;;;;31.53;52.46;98402.97;4918904;29;19931;-63
2022/08/04 10:29:47;;;;;;;;;;;;;;;31.45;55.74;98401.97;4921155;29;19934;-63
2022/08/04 10:32:20;;;;;;;;;;;;;;;31.44;53.03;98409.09;4930252;29;19954;-63
2022/08/04 10:35:05;;;;;;;;;;;;;;;31.54;59.51;98412.44;4920557;29;19957;-63
2022/08/04 10:37:42;;;;;;;;;;;;;;;31.40;52.74;98405.66;4931082;29;19935;-63
2022/08/04 10:43:04;;;;;;;;;;;;;;;31.44;53.50;98402.53;4936990;29;19935;-63
2022/08/04 10:45:58;;;;;;;;;;;;;;;31.50;59.33;98401.13;4937338;29;20286;-63
2022/08/04 10:48:25;;;;;;;;;;;;;;;31.54;55.57;98398.75;4926474;29;20351;-63
2022/08/04 10:51:19;;;;;;;;;;;;;;;31.60;55.19;98402.38;4947955;29;19930;-63
2022/08/04 10:53:50;;;;;;;;;;;;;;;31.68;63.25;98399.69;4951708;29;19930;-64
2022/08/04 10:56:50;;;;;;;;;;;;;;;31.56;51.96;98398.22;4959812;29;19927;-64
2022/08/04 10:59:33;;;;;;;;;;;;;;;31.71;53.15;98398.59;4919751;29;19953;-64
2022/08/04 11:02:11;;;;;;;;;;;;;;;31.78;55.97;98400.91;4958787;29;19931;-63
2022/08/04 11:04:46;;;;;;;;;;;;;;;31.81;55.76;98385.38;4951369;29;20315;-63
2022/08/04 11:07:15;;;;;;;;;;;;;;;31.79;54.91;98383.00;4960283;29;19926;-63
2022/08/04 11:09:43;;;;;;;;;;;;;;;31.86;54.77;98398.22;4959985;29;19930;-63
2022/08/04 11:12:16;;;;;;;;;;;;;;;31.91;55.72;98388.69;4959698;29;20259;-63
2022/08/04 11:14:52;;;;;;;;;;;;;;;32.00;57.50;98394.16;4959706;29;19926;-63
2022/08/04 11:17:23;;;;;;;;;;;;;;;31.98;52.78;98393.91;4955300;29;19931;-64
2022/08/04 11:20:08;;;;;;;;;;;;;;;31.95;52.52;98386.28;4940817;29;19931;-64
2022/08/04 11:23:02;;;;;;;;;;;;;;;31.95;53.01;98386.28;4937968;29;19931;-64
2022/08/04 11:25:34;;;;;;;;;;;;;;;32.10;54.87;98389.56;4932675;29;19935;-64
2022/08/04 11:28:08;;;;;;;;;;;;;;;32.06;53.37;98394.88;4932688;29;19935;-64
2022/08/04 11:30:50;;;;;;;;;;;;;;;32.10;53.70;98386.69;4935220;29;19931;-64
2022/08/04 11:33:21;;;;;;;;;;;;;;;32.10;52.12;98383.78;4930689;29;19942;-64
2022/08/04 11:35:56;;;;;;;;;;;;;;;32.20;48.86;98387.88;4919807;29;19927;-64
2022/08/04 11:38:27;;;;;;;;;;;;;;;32.23;56.36;98386.81;4915720;29;19934;-64
2022/08/04 11:40:57;;;;;;;;;;;;;;;32.30;48.44;98386.94;4915038;29;19931;-64
2022/08/04 11:43:34;;;;;;;;;;;;;;;32.23;48.47;98389.69;4917396;29;19926;-63
2022/08/04 11:46:06;;;;;;;;;;;;;;;32.36;52.43;98381.09;4914330;29;20218;-63
2022/08/04 11:48:36;;;;;;;;;;;;;;;32.33;46.39;98379.28;4917406;29;20366;-64
2022/08/04 11:51:05;;;;;;;;;;;;;;;32.22;45.10;98374.44;4900416;29;19942;-64
2022/08/04 11:53:33;;;;;;;;;;;;;;;32.23;47.14;98370.19;4914730;29;20243;-64
2022/08/04 11:56:02;;;;;;;;;;;;;;;32.42;49.11;98368.16;4914473;29;19931;-63
2022/08/04 11:58:29;;;;;;;;;;;;;;;32.35;42.87;98379.56;4917224;29;19927;-63
2022/08/04 12:01:15;;;;;;;;;;;;;;;32.29;44.49;98364.34;4913843;29;19939;-64
2022/08/04 12:04:02;;;;;;;;;;;;;;;32.18;45.33;98362.38;4913719;29;19937;-64
2022/08/04 12:06:48;;;;;;;;;;;;;;;32.23;44.08;98364.41;4913846;29;19928;-63
2022/08/04 12:09:28;;;;;;;;;;;;;;;32.35;47.50;98360.06;4911786;29;19939;-64
2022/08/04 12:12:21;;;;;;;;;;;;;;;32.37;48.12;98356.63;4913446;29;19935;-64
2022/08/04 12:15:01;;;;;;;;;;;;;;;32.51;47.76;98351.75;4888671;29;20336;-64
2022/08/04 12:17:30;;;;;;;;;;;;;;;32.50;44.43;98356.72;4918190;29;19934;-64
2022/08/04 12:20:01;;;;;;;;;;;;;;;32.44;45.20;98344.44;4913260;29;19927;-64
2022/08/04 12:22:33;;;;;;;;;;;;;;;32.54;43.90;98345.66;4917429;29;19927;-64
2022/08/04 12:25:02;;;;;;;;;;;;;;;32.53;45.57;98343.28;4913305;29;20330;-64
2022/08/04 12:27:43;;;;;;;;;;;;;;;32.50;44.77;98345.13;4916079;29;19927;-63
2022/08/04 12:30:11;;;;;;;;;;;;;;;32.40;42.78;98349.75;4911573;29;20987;-63
2022/08/04 12:32:43;;;;;;;;;;;;;;;32.45;43.05;98334.44;4917186;29;19933;-63
2022/08/04 12:35:28;;;;;;;;;;;;;;;32.41;42.84;98342.63;4930071;29;19938;-63
2022/08/04 12:37:55;;;;;;;;;;;;;;;32.42;45.18;98333.41;4930935;29;20263;-64
2022/08/04 12:40:25;;;;;;;;;;;;;;;32.51;45.30;98335.16;4933947;29;20393;-64
2022/08/04 12:42:53;;;;;;;;;;;;;;;32.55;45.72;98338.50;4932598;29;20264;-64
2022/08/04 12:45:21;;;;;;;;;;;;;;;32.64;43.91;98346.84;4931287;29;20299;-64
2022/08/04 12:47:49;;;;;;;;;;;;;;;32.57;46.84;98326.41;4936312;29;19927;-64
2022/08/04 12:50:17;;;;;;;;;;;;;;;32.52;43.45;98327.25;4939506;29;19938;-64
2022/08/04 12:52:49;;;;;;;;;;;;;;;32.47;45.05;98326.75;4954041;29;19933;-64
2022/08/04 12:55:29;;;;;;;;;;;;;;;32.48;44.71;98322.53;4935782;29;19931;-64
2022/08/04 12:57:57;;;;;;;;;;;;;;;32.50;48.83;98321.97;4938320;29;20293;-64
2022/08/04 13:00:26;;;;;;;;;;;;;;;32.44;41.94;98318.38;4941966;29;19926;-63
2022/08/04 13:02:58;;;;;;;;;;;;;;;32.48;45.35;98315.94;4929904;29;19939;-63
2022/08/04 13:05:28;;;;;;;;;;;;;;;32.50;45.31;98319.06;4936912;29;20323;-64
2022/08/04 13:07:56;;;;;;;;;;;;;;;32.51;44.52;98320.69;4933283;29;19969;-63
2022/08/04 13:10:23;;;;;;;;;;;;;;;32.37;42.60;98316.91;4939759;29;20223;-64
2022/08/04 13:12:56;;;;;;;;;;;;;;;32.46;43.91;98307.81;4934764;29;19930;-64
2022/08/04 13:15:25;;;;;;;;;;;;;;;32.46;45.19;98316.50;4938324;29;19927;-64
2022/08/04 13:17:55;;;;;;;;;;;;;;;32.51;46.73;98314.88;4927664;29;20294;-64
2022/08/04 13:20:24;;;;;;;;;;;;;;;32.58;45.11;98308.47;4924189;29;19939;-64
2022/08/04 13:22:56;;;;;;;;;;;;;;;32.59;44.64;98312.94;4942745;29;19931;-64
2022/08/04 13:25:27;;;;;;;;;;;;;;;32.59;44.87;98303.47;4932890;29;19927;-64
2022/08/04 13:27:55;;;;;;;;;;;;;;;32.59;45.07;98310.03;4932291;29;19932;-64
2022/08/04 13:30:23;;;;;;;;;;;;;;;32.60;42.84;98305.81;4931874;29;20358;-64
2022/08/04 13:32:54;;;;;;;;;;;;;;;32.68;42.92;98291.47;4935409;29;20235;-64
2022/08/04 13:35:22;;;;;;;;;;;;;;;32.59;42.83;98301.34;4936237;29;20235;-64
2022/08/04 13:37:51;;;;;;;;;;;;;;;32.61;42.79;98289.22;4936810;29;19938;-64
2022/08/04 13:40:20;;;;;;;;;;;;;;;32.63;46.66;98286.56;4948232;29;19941;-64
2022/08/04 13:42:50;;;;;;;;;;;;;;;32.72;45.83;98284.03;4944305;29;19934;-64
2022/08/04 13:45:21;;;;;;;;;;;;;;;32.86;47.05;98282.78;4937072;29;19942;-64
2022/08/04 13:47:50;;;;;;;;;;;;;;;33.03;45.76;98270.97;4938684;29;19931;-64
2022/08/04 14:13:29;;;;;;;;;;;;;;;32.80;44.85;98246.53;5768159;23;19938;-64
2022/08/04 14:15:57;;;;;;;;;;;;;;;32.86;44.97;98248.03;4933107;29;19931;-63
2022/08/04 14:18:25;;;;;;;;;;;;;;;32.87;43.55;98243.00;4928665;29;19942;-64
2022/08/04 14:21:02;;;;;;;;;;;;;;;32.84;44.34;98244.88;4926945;29;19961;-64
2022/08/04 14:23:38;;;;;;;;;;;;;;;32.82;47.11;98252.56;4920307;29;19934;-64
2022/08/04 14:26:21;;;;;;;;;;;;;;;32.78;48.10;98258.69;4927689;29;19937;-64
2022/08/04 14:28:48;;;;;;;;;;;;;;;32.70;43.73;98251.16;4933905;29;19926;-64
2022/08/04 14:31:24;;;;;;;;;;;;;;;32.63;43.77;98243.91;4933927;29;19958;-64
2022/08/04 14:33:54;;;;;;;;;;;;;;;32.67;44.58;98247.25;4933902;29;19927;-64
2022/08/04 14:36:21;;;;;;;;;;;;;;;32.72;44.65;98248.53;4933521;29;19938;-64
2022/08/04 14:38:49;;;;;;;;;;;;;;;32.79;46.16;98254.44;4934588;29;19927;-63
2022/08/04 14:41:18;;;;;;;;;;;;;;;32.72;44.41;98251.41;4933816;29;19931;-64
2022/08/04 14:43:50;;;;;;;;;;;;;;;32.72;43.61;98242.72;4934772;29;19934;-64
2022/08/04 14:46:18;;;;;;;;;;;;;;;32.69;44.66;98235.13;4934006;29;20309;-64
2022/08/04 14:49:04;;;;;;;;;;;;;;;32.68;44.45;98236.47;4934289;29;19953;-64
2022/08/04 14:51:39;;;;;;;;;;;;;;;32.73;45.12;98233.47;4934602;29;19943;-64
2022/08/04 14:54:08;;;;;;;;;;;;;;;32.70;45.57;98230.91;4924598;29;19938;-64
2022/08/04 14:56:39;;;;;;;;;;;;;;;32.69;45.54;98233.03;4931295;29;19927;-63
2022/08/04 14:59:13;;;;;;;;;;;;;;;32.64;45.46;98233.09;4929421;29;19933;-63
2022/08/04 15:01:41;;;;;;;;;;;;;;;32.65;47.38;98228.88;4898176;29;19931;-64
2022/08/04 15:04:10;;;;;;;;;;;;;;;32.67;46.51;98221.19;4914918;29;20294;-64
2022/08/04 15:06:37;;;;;;;;;;;;;;;32.72;45.57;98228.25;4915533;29;20413;-64
2022/08/04 15:09:06;;;;;;;;;;;;;;;32.73;46.21;98224.00;4915064;29;20374;-64
2022/08/04 15:11:34;;;;;;;;;;;;;;;32.74;44.99;98223.47;4918309;29;19935;-64
2022/08/04 15:14:03;;;;;;;;;;;;;;;32.65;46.14;98220.97;4933458;29;19930;-64
2022/08/04 15:16:32;;;;;;;;;;;;;;;32.64;46.28;98216.53;4932758;29;19927;-64
2022/08/04 15:18:59;;;;;;;;;;;;;;;32.58;47.38;98215.81;4933980;29;19927;-64
2022/08/04 15:21:27;;;;;;;;;;;;;;;32.55;45.16;98216.91;4933571;29;19954;-64
2022/08/04 15:23:55;;;;;;;;;;;;;;;32.50;45.09;98214.09;4933305;29;19938;-63
2022/08/04 15:26:34;;;;;;;;;;;;;;;32.48;45.00;98209.63;4933834;29;19938;-64
2022/08/04 15:29:06;;;;;;;;;;;;;;;32.50;46.86;98208.31;4933672;29;19931;-64
2022/08/04 15:31:38;;;;;;;;;;;;;;;32.54;46.46;98211.69;4923360;29;19928;-64
2022/08/04 15:34:08;;;;;;;;;;;;;;;32.49;44.83;98210.41;4930843;29;19938;-63
2022/08/04 15:36:41;;;;;;;;;;;;;;;32.50;44.95;98206.16;4934599;29;19938;-64
2022/08/04 15:39:08;;;;;;;;;;;;;;;32.52;45.59;98208.56;4919660;29;19934;-65
2022/08/04 15:41:41;;;;;;;;;;;;;;;32.56;45.01;98211.91;4936081;29;19937;-63
2022/08/04 15:44:20;;;;;;;;;;;;;;;32.54;45.46;98214.56;4937472;29;20279;-64
2022/08/04 15:46:50;;;;;;;;;;;;;;;32.47;44.87;98208.03;4936366;29;19927;-63
2022/08/04 15:49:19;;;;;;;;;;;;;;;32.44;45.26;98205.47;4936058;29;19927;-64
2022/08/04 15:51:57;;;;;;;;;;;;;;;32.43;44.88;98209.69;4935935;29;19937;-63
2022/08/04 15:54:25;;;;;;;;;;;;;;;32.43;46.42;98198.91;4936958;29;19933;-64
2022/08/04 15:56:52;;;;;;;;;;;;;;;32.33;48.64;98202.75;4936063;29;19931;-64
2022/08/04 15:59:45;;;;;;;;;;;;;;;32.35;46.90;98197.97;4935958;29;19927;-64
2022/08/04 16:02:30;;;;;;;;;;;;;;;32.33;48.20;98203.53;4936330;29;19927;-63
2022/08/04 16:05:13;;;;;;;;;;;;;;;32.36;48.16;98196.66;4920205;29;19934;-64
2022/08/04 16:07:59;;;;;;;;;;;;;;;32.31;46.84;98193.81;4935701;29;19939;-64
2022/08/04 16:10:29;;;;;;;;;;;;;;;32.26;48.00;98186.00;4935933;29;19931;-63
2022/08/04 16:12:58;;;;;;;;;;;;;;;32.26;47.16;98188.91;4935709;29;20419;-64
2022/08/04 16:15:45;;;;;;;;;;;;;;;32.23;47.11;98190.03;4936272;29;19934;-64
2022/08/04 16:18:19;;;;;;;;;;;;;;;32.24;47.30;98189.47;4936666;29;19927;-63
2022/08/04 16:20:46;;;;;;;;;;;;;;;32.20;48.21;98189.00;4935610;29;19931;-63
2022/08/04 16:23:14;;;;;;;;;;;;;;;32.20;48.10;98180.31;4936253;29;19927;-64
2022/08/04 16:25:50;;;;;;;;;;;;;;;32.17;49.40;98174.84;4936059;29;19927;-63
2022/08/04 16:28:42;;;;;;;;;;;;;;;32.10;48.95;98181.25;4936011;29;19927;-64
2022/08/04 16:31:10;;;;;;;;;;;;;;;32.05;49.32;98180.00;4935599;29;19926;-64
2022/08/04 16:33:38;;;;;;;;;;;;;;;31.99;49.55;98172.72;4933691;29;19927;-62
2022/08/04 16:36:08;;;;;;;;;;;;;;;31.94;49.50;98171.44;4932084;29;19931;-63
2022/08/04 16:38:53;;;;;;;;;;;;;;;31.88;49.41;98172.84;4928629;29;19927;-64
2022/08/04 16:41:39;;;;;;;;;;;;;;;31.80;50.20;98170.59;4934997;29;19947;-64
2022/08/04 16:44:39;;;;;;;;;;;;;;;31.83;51.05;98174.50;4934277;29;19931;-63
2022/08/04 16:47:38;;;;;;;;;;;;;;;31.75;49.84;98177.22;4927964;29;20409;-64
2022/08/04 16:50:06;;;;;;;;;;;;;;;31.76;48.33;98173.00;4924442;29;19931;-64
2022/08/04 16:52:40;;;;;;;;;;;;;;;31.75;49.33;98170.66;4927296;29;19934;-64
2022/08/04 16:55:08;;;;;;;;;;;;;;;31.73;50.21;98168.31;4928246;29;19934;-64
2022/08/04 16:57:35;;;;;;;;;;;;;;;31.68;51.92;98169.16;4930695;29;19926;-64
2022/08/04 17:00:06;;;;;;;;;;;;;;;31.69;49.40;98173.59;4932683;29;19934;-64
2022/08/04 17:02:34;;;;;;;;;;;;;;;31.65;49.59;98172.34;4929969;29;19949;-63
2022/08/04 17:05:02;;;;;;;;;;;;;;;31.59;50.55;98166.66;4922368;29;19930;-63
2022/08/04 17:07:47;;;;;;;;;;;;;;;31.57;49.46;98175.06;4928778;29;19942;-63
2022/08/04 17:10:14;;;;;;;;;;;;;;;31.57;48.50;98169.28;4926015;29;20305;-64
2022/08/04 17:12:42;;;;;;;;;;;;;;;31.55;50.42;98177.72;4925960;29;19930;-64
2022/08/04 17:15:22;;;;;;;;;;;;;;;31.47;51.50;98176.00;4927538;29;19935;-63
2022/08/04 17:17:49;;;;;;;;;;;;;;;31.42;49.73;98183.38;4927109;29;19933;-63
2022/08/04 17:20:24;;;;;;;;;;;;;;;31.37;49.82;98174.75;4927122;29;20324;-64
2022/08/04 17:22:51;;;;;;;;;;;;;;;31.39;48.71;98178.69;4924538;29;20422;-63
2022/08/04 17:25:19;;;;;;;;;;;;;;;31.38;48.71;98182.88;4925008;29;19934;-64
2022/08/04 17:27:46;;;;;;;;;;;;;;;31.33;50.10;98175.06;4924908;29;19938;-63
2022/08/04 17:30:26;;;;;;;;;;;;;;;31.25;49.82;98177.00;4929921;29;19927;-63
2022/08/04 17:32:53;;;;;;;;;;;;;;;31.24;49.36;98169.66;4924336;29;20401;-63
2022/08/04 17:35:21;;;;;;;;;;;;;;;31.21;49.41;98176.50;4928224;29;19961;-63
2022/08/04 17:37:48;;;;;;;;;;;;;;;31.14;50.14;98177.09;4922177;29;19954;-64
2022/08/04 17:40:15;;;;;;;;;;;;;;;31.09;50.29;98169.28;4924236;29;19935;-64
2022/08/04 17:42:43;;;;;;;;;;;;;;;31.07;49.34;98171.94;4926263;29;19927;-65
2022/08/04 17:45:12;;;;;;;;;;;;;;;31.02;48.45;98178.53;4925930;29;19953;-65
2022/08/04 17:47:59;;;;;;;;;;;;;;;30.99;49.22;98179.63;4925377;29;19930;-63
2022/08/04 17:50:28;;;;;;;;;;;;;;;31.01;49.00;98183.53;4924776;29;19931;-63
2022/08/04 17:52:59;;;;;;;;;;;;;;;30.90;52.12;98174.19;4924736;29;19938;-64
2022/08/04 17:55:46;;;;;;;;;;;;;;;30.81;53.47;98177.41;4928742;29;19935;-64
2022/08/04 17:58:18;;;;;;;;;;;;;;;30.72;51.54;98184.28;4921834;29;19931;-64
2022/08/04 18:00:45;;;;;;;;;;;;;;;30.66;52.25;98179.91;4913725;29;19934;-65
2022/08/04 18:03:23;;;;;;;;;;;;;;;30.59;54.05;98184.16;4925347;29;19931;-64
2022/08/04 18:05:53;;;;;;;;;;;;;;;30.51;55.08;98180.28;4924299;29;19927;-64
2022/08/04 18:08:25;;;;;;;;;;;;;;;30.36;57.55;98177.75;4925397;29;19938;-64
2022/08/04 18:10:53;;;;;;;;;;;;;;;30.31;55.78;98183.53;4924944;29;19933;-64
2022/08/04 18:13:23;;;;;;;;;;;;;;;30.21;54.71;98191.72;4927684;29;19938;-64
2022/08/04 18:15:59;;;;;;;;;;;;;;;30.13;57.29;98187.84;4923960;29;19938;-64
2022/08/04 18:18:26;;;;;;;;;;;;;;;30.07;56.44;98180.53;4927217;29;19931;-64
2022/08/04 18:20:54;;;;;;;;;;;;;;;30.02;58.42;98185.03;4929077;29;19927;-64
2022/08/04 18:23:21;;;;;;;;;;;;;;;29.98;60.84;98175.09;4931055;29;19937;-64
2022/08/04 18:25:48;;;;;;;;;;;;;;;29.93;62.15;98174.56;4930440;29;19935;-64
2022/08/04 18:28:15;;;;;;;;;;;;;;;29.88;61.05;98181.16;4930309;29;19931;-64
2022/08/04 18:30:45;;;;;;;;;;;;;;;29.84;59.37;98183.53;4914120;29;19927;-65
2022/08/04 18:33:20;;;;;;;;;;;;;;;29.83;58.24;98186.97;4921605;29;19927;-64
2022/08/04 18:35:51;;;;;;;;;;;;;;;29.81;59.52;98195.34;4923176;29;19934;-64
2022/08/04 18:38:18;;;;;;;;;;;;;;;29.77;59.75;98192.75;4927154;29;19927;-64
2022/08/04 18:40:45;;;;;;;;;;;;;;;29.74;60.57;98187.22;4923981;29;19943;-64
2022/08/04 18:43:12;;;;;;;;;;;;;;;29.70;60.66;98189.59;4926467;29;20408;-63
2022/08/04 18:45:40;;;;;;;;;;;;;;;29.66;61.15;98186.22;4924131;29;19996;-65
2022/08/04 18:48:08;;;;;;;;;;;;;;;29.61;58.89;98190.69;4922778;29;19927;-64
2022/08/04 18:50:35;;;;;;;;;;;;;;;29.60;58.78;98189.13;4924665;29;19934;-64
2022/08/04 18:53:02;;;;;;;;;;;;;;;29.59;60.40;98201.19;4917572;29;20406;-65
2022/08/04 18:55:30;;;;;;;;;;;;;;;29.55;62.07;98203.53;4913828;29;19927;-65
2022/08/04 18:57:57;;;;;;;;;;;;;;;29.51;61.69;98194.41;4914763;29;19938;-65
2022/08/04 19:00:26;;;;;;;;;;;;;;;29.49;60.95;98200.66;4919839;29;20406;-64
2022/08/04 19:02:53;;;;;;;;;;;;;;;29.48;61.60;98201.22;4924064;29;20010;-65
2022/08/04 19:05:21;;;;;;;;;;;;;;;29.45;60.36;98208.81;4932723;29;19931;-64
2022/08/04 19:07:48;;;;;;;;;;;;;;;29.43;58.30;98211.44;4916602;29;19927;-65
2022/08/04 19:10:15;;;;;;;;;;;;;;;29.43;59.56;98211.44;4932990;29;19927;-64
2022/08/04 19:12:42;;;;;;;;;;;;;;;29.43;59.92;98213.53;4935689;29;19927;-65